Time;durP1;ratioP1;P1;durP2;ratioP2;P2;SDS_P1;SDS_P2;PMS_P1;PMS_P2;Temp;Humidity;BMP_temperature;BMP_pressure;BME280_temperature;BME280_humidity;BME280_pressure;Samples;Min_cycle;Max_cycle;Signal;HPM_P1;HPM_P2
2021/09/10 00:00:19;;;;;;;2.27;1.83;;;;;;;15.02;100.00;96596.50;5012257;28;20728;-75
2021/09/10 00:02:46;;;;;;;1.83;1.73;;;;;;;14.95;100.00;96605.13;5011925;28;20199;-75
2021/09/10 00:05:13;;;;;;;3.03;2.33;;;;;;;14.83;100.00;96611.84;5012520;28;20204;-75
2021/09/10 00:07:40;;;;;;;2.93;2.13;;;;;;;14.81;100.00;96602.44;5012118;28;20244;-76
2021/09/10 00:10:10;;;;;;;2.73;2.13;;;;;;;14.55;100.00;96614.19;5012385;28;20235;-76
2021/09/10 00:12:37;;;;;;;4.33;2.40;;;;;;;14.43;100.00;96600.50;5012092;28;20199;-75
2021/09/10 00:15:06;;;;;;;3.93;3.27;;;;;;;14.65;100.00;96598.06;5012401;28;20580;-75
2021/09/10 00:17:33;;;;;;;2.10;2.00;;;;;;;14.78;100.00;96605.44;5012249;28;20252;-75
2021/09/10 00:20:00;;;;;;;5.27;2.60;;;;;;;14.74;100.00;96599.69;5011873;28;20200;-76
2021/09/10 00:22:27;;;;;;;4.77;2.63;;;;;;;14.57;100.00;96598.13;5011970;28;20718;-76
2021/09/10 00:24:54;;;;;;;4.13;2.30;;;;;;;14.59;100.00;96593.50;5012059;28;20204;-75
2021/09/10 00:27:23;;;;;;;2.50;2.30;;;;;;;14.68;100.00;96595.09;5011809;28;20244;-75
2021/09/10 00:29:50;;;;;;;5.27;2.67;;;;;;;14.68;100.00;96587.16;5011719;28;20579;-75
2021/09/10 00:32:18;;;;;;;3.93;2.43;;;;;;;14.76;100.00;96589.75;5012129;28;20206;-75
2021/09/10 00:34:45;;;;;;;2.20;2.00;;;;;;;14.70;100.00;96588.63;5011967;28;20290;-75
2021/09/10 00:37:12;;;;;;;4.63;2.30;;;;;;;14.85;100.00;96598.44;5014114;28;20231;-75
2021/09/10 00:39:39;;;;;;;2.70;2.50;;;;;;;14.75;100.00;96603.97;5016036;28;20611;-75
2021/09/10 00:42:07;;;;;;;2.83;2.60;;;;;;;14.67;100.00;96606.69;5015659;28;20201;-75
2021/09/10 00:44:35;;;;;;;5.73;3.13;;;;;;;14.92;100.00;96605.50;5015820;28;20203;-75
2021/09/10 00:47:03;;;;;;;4.70;2.10;;;;;;;14.81;100.00;96607.75;5015618;28;20286;-75
2021/09/10 00:49:30;;;;;;;3.07;2.50;;;;;;;14.80;100.00;96614.03;5015543;28;20282;-75
2021/09/10 00:51:58;;;;;;;2.20;2.00;;;;;;;14.85;100.00;96609.84;5015499;28;20243;-75
2021/09/10 00:54:25;;;;;;;2.87;2.13;;;;;;;14.81;100.00;96607.75;5015650;28;20220;-75
2021/09/10 00:56:53;;;;;;;3.60;2.40;;;;;;;14.78;100.00;96605.44;5015115;28;20319;-75
2021/09/10 00:59:21;;;;;;;3.60;3.10;;;;;;;14.58;100.00;96608.56;5015515;28;20208;-75
2021/09/10 01:01:50;;;;;;;5.53;2.50;;;;;;;14.67;100.00;96606.69;5015355;28;20235;-75
2021/09/10 01:04:22;;;;;;;5.07;2.23;;;;;;;14.87;100.00;96613.16;5015948;28;20208;-75
2021/09/10 01:06:50;;;;;;;2.63;2.43;;;;;;;14.77;100.00;96604.63;5015165;28;20184;-75
2021/09/10 01:09:18;;;;;;;4.03;1.90;;;;;;;14.72;100.00;96617.53;5015383;28;20201;-75
2021/09/10 01:11:46;;;;;;;2.73;2.47;;;;;;;14.75;100.00;96614.53;5015520;28;20199;-75
2021/09/10 01:14:16;;;;;;;3.87;2.50;;;;;;;14.61;100.00;96623.25;5015548;28;20279;-75
2021/09/10 01:16:43;;;;;;;3.50;3.00;;;;;;;14.63;100.00;96616.78;5015057;28;20231;-75
2021/09/10 01:19:22;;;;;;;2.47;2.27;;;;;;;14.54;100.00;96624.94;5015505;28;20196;-75
2021/09/10 01:21:53;;;;;;;3.30;2.33;;;;;;;14.60;100.00;96611.03;5015059;28;20624;-75
2021/09/10 01:24:26;;;;;;;4.93;2.33;;;;;;;14.57;100.00;96609.53;5015191;28;20194;-75
2021/09/10 01:26:54;;;;;;;4.97;2.50;;;;;;;14.67;100.00;96612.78;5014519;28;20282;-75
2021/09/10 01:29:21;;;;;;;2.90;2.57;;;;;;;14.80;100.00;96611.38;5015321;28;20288;-75
2021/09/10 01:31:48;;;;;;;6.60;2.67;;;;;;;14.78;100.00;96614.19;5015279;28;20200;-75
2021/09/10 01:34:16;;;;;;;6.43;3.50;;;;;;;14.83;100.00;96611.84;5014949;28;20199;-75
2021/09/10 01:36:43;;;;;;;3.57;2.37;;;;;;;14.80;100.00;96616.69;5014581;28;20292;-75
2021/09/10 01:39:10;;;;;;;3.07;2.70;;;;;;;14.90;100.00;96617.28;5014521;28;20200;-75
2021/09/10 01:41:39;;;;;;;3.37;2.50;;;;;;;14.67;100.00;96615.44;5014952;28;20211;-75
2021/09/10 01:44:06;;;;;;;4.17;2.40;;;;;;;14.71;100.00;96610.59;5014673;28;20204;-75
2021/09/10 01:46:33;;;;;;;3.87;2.87;;;;;;;14.66;100.00;96607.69;5014667;28;20242;-75
2021/09/10 01:49:00;;;;;;;3.37;2.17;;;;;;;14.71;100.00;96607.97;5013640;28;20198;-75
2021/09/10 01:51:31;;;;;;;4.23;2.90;;;;;;;14.74;100.00;96607.63;5014800;28;20198;-76
2021/09/10 01:53:59;;;;;;;5.90;2.73;;;;;;;14.77;100.00;96601.97;5014488;28;20205;-75
2021/09/10 01:56:26;;;;;;;3.07;2.50;;;;;;;14.73;100.00;96605.97;5014531;28;20292;-75
2021/09/10 01:58:55;;;;;;;3.50;2.43;;;;;;;14.70;100.00;96601.84;5014588;28;20306;-75
2021/09/10 02:01:24;;;;;;;4.33;2.80;;;;;;;14.73;100.00;96605.97;5014152;28;20207;-75
2021/09/10 02:03:52;;;;;;;5.83;2.60;;;;;;;14.84;100.00;96608.19;5014222;28;20209;-75
2021/09/10 02:06:20;;;;;;;2.67;2.20;;;;;;;14.81;100.00;96605.91;5014358;28;20233;-75
2021/09/10 02:08:47;;;;;;;2.47;2.27;;;;;;;14.78;100.00;96602.78;5014175;28;20239;-75
2021/09/10 02:11:14;;;;;;;2.23;2.03;;;;;;;14.77;100.00;96606.44;5013977;28;20209;-75
2021/09/10 02:13:42;;;;;;;2.70;2.50;;;;;;;14.87;100.00;96591.16;5014100;28;20200;-75
2021/09/10 02:16:11;;;;;;;2.80;2.33;;;;;;;14.88;100.00;96598.91;5014330;28;20709;-75
2021/09/10 02:18:39;;;;;;;4.67;2.83;;;;;;;14.85;100.00;96599.25;5014197;28;20244;-75
2021/09/10 02:21:07;;;;;;;4.27;2.47;;;;;;;14.90;100.00;96602.22;5014383;28;20243;-75
2021/09/10 02:23:35;;;;;;;4.67;1.90;;;;;;;14.84;100.00;96602.09;5013985;28;20215;-75
2021/09/10 02:26:02;;;;;;;4.83;2.17;;;;;;;14.80;100.00;96596.34;5013891;28;20672;-75
2021/09/10 02:28:30;;;;;;;3.97;2.80;;;;;;;14.84;100.00;96594.97;5013621;28;20233;-75
2021/09/10 02:30:57;;;;;;;2.67;2.40;;;;;;;14.81;100.00;96592.69;5013764;28;20201;-75
2021/09/10 02:33:27;;;;;;;2.80;2.40;;;;;;;14.72;100.00;96593.72;5013762;28;20564;-76
2021/09/10 02:35:55;;;;;;;4.20;2.60;;;;;;;14.84;100.00;96591.50;5013790;28;20208;-75
2021/09/10 02:38:22;;;;;;;2.70;2.50;;;;;;;14.78;100.00;96587.72;5013554;28;20233;-75
2021/09/10 02:40:50;;;;;;;2.97;2.30;;;;;;;14.68;100.00;96587.16;5013607;28;20195;-75
2021/09/10 02:43:17;;;;;;;2.87;2.10;;;;;;;14.91;100.00;96589.78;5013277;28;20205;-75
2021/09/10 02:45:45;;;;;;;5.20;2.10;;;;;;;14.93;100.00;96585.97;5013807;28;20202;-75
2021/09/10 02:48:12;;;;;;;2.73;2.30;;;;;;;14.86;100.00;96582.41;5013674;28;20197;-75
2021/09/10 02:50:41;;;;;;;3.10;2.67;;;;;;;14.79;100.00;96589.41;5013479;28;20206;-75
2021/09/10 02:53:08;;;;;;;2.73;2.27;;;;;;;14.77;100.00;96590.56;5013319;28;20206;-75
2021/09/10 02:55:35;;;;;;;2.37;2.17;;;;;;;14.74;100.00;96589.09;5013190;28;20723;-75
2021/09/10 02:58:02;;;;;;;2.40;2.20;;;;;;;14.75;100.00;96585.44;5013066;28;20228;-75
2021/09/10 03:00:30;;;;;;;2.30;2.20;;;;;;;14.84;100.00;96580.94;5012581;28;20211;-75
2021/09/10 03:02:57;;;;;;;6.93;2.70;;;;;;;14.90;100.00;96574.94;5012926;28;20211;-75
2021/09/10 03:05:24;;;;;;;2.77;2.30;;;;;;;14.81;100.00;96576.81;5013213;28;20257;-75
2021/09/10 03:07:53;;;;;;;3.70;2.90;;;;;;;14.85;100.00;96577.28;5013345;28;20662;-76
2021/09/10 03:10:20;;;;;;;3.23;2.30;;;;;;;14.76;100.00;96579.16;5033016;28;20208;-75
2021/09/10 03:12:47;;;;;;;3.23;2.27;;;;;;;14.65;100.00;96577.75;5032393;28;20247;-76
2021/09/10 03:15:15;;;;;;;8.73;2.50;;;;;;;14.72;100.00;96577.84;5032856;28;20207;-76
2021/09/10 03:17:43;;;;;;;2.80;2.57;;;;;;;14.69;100.00;96575.59;5032405;28;20264;-75
2021/09/10 03:20:12;;;;;;;2.77;2.43;;;;;;;14.75;100.00;96572.22;5032880;28;20247;-76
2021/09/10 03:22:39;;;;;;;4.03;2.00;;;;;;;14.64;100.00;96568.16;5032429;28;20204;-76
2021/09/10 03:25:09;;;;;;;8.43;3.03;;;;;;;14.76;100.00;96563.28;5032350;28;20570;-76
2021/09/10 03:27:36;;;;;;;3.63;2.47;;;;;;;14.71;100.00;96571.75;5043183;28;20229;-76
2021/09/10 03:30:04;;;;;;;2.50;2.30;;;;;;;14.70;100.00;96569.28;5052394;28;20210;-76
2021/09/10 03:32:31;;;;;;;2.83;2.63;;;;;;;14.66;100.00;96571.47;5052027;28;20290;-76
2021/09/10 03:34:58;;;;;;;4.27;2.63;;;;;;;14.85;100.00;96577.28;5052309;28;20200;-76
2021/09/10 03:37:26;;;;;;;3.90;2.50;;;;;;;14.87;100.00;96578.75;5050567;28;20202;-76
2021/09/10 03:39:53;;;;;;;2.50;2.30;;;;;;;14.91;100.00;96582.69;5031596;28;20576;-75
2021/09/10 03:42:21;;;;;;;2.40;2.20;;;;;;;14.80;100.00;96584.94;5030389;28;20209;-75
2021/09/10 03:44:49;;;;;;;3.23;2.80;;;;;;;14.79;100.00;96584.09;5031721;28;20576;-76
2021/09/10 03:47:16;;;;;;;4.07;2.70;;;;;;;14.70;100.00;96585.16;5032008;28;20206;-75
2021/09/10 03:49:43;;;;;;;5.50;2.50;;;;;;;14.70;100.00;96585.16;5032162;28;20203;-75
2021/09/10 03:52:10;;;;;;;3.10;2.30;;;;;;;14.72;100.00;96585.78;5031761;28;20204;-75
2021/09/10 03:54:38;;;;;;;6.30;2.40;;;;;;;14.63;100.00;96578.94;5032442;28;20672;-75
2021/09/10 03:57:06;;;;;;;3.13;2.37;;;;;;;14.63;100.00;96579.75;5031870;28;20671;-75
2021/09/10 03:59:34;;;;;;;2.87;2.60;;;;;;;14.73;100.00;96577.69;5031958;28;20223;-75
2021/09/10 04:02:02;;;;;;;4.00;2.13;;;;;;;14.65;100.00;96580.41;5031874;28;20193;-76
2021/09/10 04:04:29;;;;;;;4.00;2.80;;;;;;;14.68;100.00;96582.69;5031722;28;20215;-75
2021/09/10 04:06:56;;;;;;;2.60;2.40;;;;;;;14.72;100.00;96581.34;5032013;28;20308;-75
2021/09/10 04:09:23;;;;;;;3.23;2.47;;;;;;;14.67;100.00;96585.50;5031948;28;20198;-75
2021/09/10 04:11:51;;;;;;;3.90;2.33;;;;;;;14.54;100.00;96585.25;5031192;28;20961;-75
2021/09/10 04:14:18;;;;;;;3.57;2.70;;;;;;;14.33;100.00;96584.03;5032321;28;20204;-75
2021/09/10 04:16:46;;;;;;;19.53;3.13;;;;;;;14.49;100.00;96589.22;5032006;28;20329;-75
2021/09/10 04:19:14;;;;;;;2.87;2.67;;;;;;;14.53;100.00;96592.38;5031969;28;20237;-75
2021/09/10 04:21:41;;;;;;;3.27;2.50;;;;;;;14.57;100.00;96585.72;5031908;28;20211;-75
2021/09/10 04:24:08;;;;;;;3.17;2.40;;;;;;;14.60;100.00;96584.56;5031820;28;20195;-75
2021/09/10 04:26:35;;;;;;;5.10;2.50;;;;;;;14.60;100.00;96584.56;5034335;28;20195;-75
2021/09/10 04:29:02;;;;;;;3.13;2.80;;;;;;;14.59;100.00;96589.03;5051577;28;20222;-75
2021/09/10 04:31:29;;;;;;;3.80;2.07;;;;;;;14.75;100.00;96585.44;5051427;28;20207;-76
2021/09/10 04:33:58;;;;;;;8.80;2.80;;;;;;;14.72;100.00;96589.28;5050384;28;20206;-75
2021/09/10 04:36:25;;;;;;;3.60;2.50;;;;;;;14.75;100.00;96585.44;5051314;28;20576;-76
2021/09/10 04:38:52;;;;;;;3.47;2.60;;;;;;;14.74;100.00;96589.09;5051304;28;20225;-75
2021/09/10 04:41:20;;;;;;;2.93;2.30;;;;;;;14.77;100.00;96590.56;5051621;28;20277;-75
2021/09/10 04:43:47;;;;;;;4.83;2.87;;;;;;;14.90;100.00;96593.44;5051380;28;20555;-75
2021/09/10 04:46:14;;;;;;;4.83;2.87;;;;;;;14.62;100.00;96593.97;5051503;28;20194;-75
2021/09/10 04:48:41;;;;;;;10.17;9.17;;;;;;;14.70;100.00;96601.03;5051283;28;20242;-75
2021/09/10 04:51:10;;;;;;;6.00;4.93;;;;;;;14.67;100.00;96604.03;5051345;28;20203;-75
2021/09/10 04:53:39;;;;;;;4.03;3.57;;;;;;;14.80;100.00;96604.28;5051499;28;20194;-75
2021/09/10 04:56:07;;;;;;;5.70;3.20;;;;;;;14.86;100.00;96602.72;5051742;28;20195;-75
2021/09/10 04:58:34;;;;;;;4.83;3.20;;;;;;;14.95;100.00;96599.03;5051448;28;20245;-75
2021/09/10 05:01:01;;;;;;;3.97;2.97;;;;;;;14.88;100.00;96596.25;5051430;28;20206;-75
2021/09/10 05:03:29;;;;;;;3.67;2.80;;;;;;;14.89;100.00;96594.44;5051200;28;20196;-75
2021/09/10 05:05:56;;;;;;;3.10;2.67;;;;;;;14.88;100.00;96593.63;5051346;28;20209;-75
2021/09/10 05:08:25;;;;;;;2.70;2.50;;;;;;;14.94;100.00;96592.91;5051127;28;20238;-75
2021/09/10 05:10:52;;;;;;;3.83;3.33;;;;;;;15.03;100.00;96584.91;5051263;28;20195;-75
2021/09/10 05:13:19;;;;;;;5.47;3.63;;;;;;;14.99;100.00;96585.25;5051045;28;20202;-75
2021/09/10 05:15:46;;;;;;;5.50;3.03;;;;;;;14.93;100.00;96590.47;5051220;28;20217;-75
2021/09/10 05:18:14;;;;;;;3.43;3.23;;;;;;;15.06;100.00;96584.53;5050893;28;20315;-75
2021/09/10 05:20:41;;;;;;;8.23;4.07;;;;;;;15.23;100.00;96584.22;5051180;28;20196;-75
2021/09/10 05:23:08;;;;;;;4.33;3.47;;;;;;;15.26;100.00;96585.69;5051116;28;20675;-75
2021/09/10 05:25:37;;;;;;;10.07;4.17;;;;;;;15.22;100.00;96584.41;5055119;28;20203;-75
2021/09/10 05:28:05;;;;;;;5.50;2.87;;;;;;;15.18;100.00;96588.41;5054425;28;20261;-75
2021/09/10 05:30:32;;;;;;;7.73;3.47;;;;;;;15.23;100.00;96592.16;5054464;28;20294;-75
2021/09/10 05:32:59;;;;;;;5.70;3.47;;;;;;;15.24;100.00;96590.34;5054569;28;20257;-75
2021/09/10 05:35:27;;;;;;;6.43;3.23;;;;;;;15.33;100.00;96591.09;5054631;28;20293;-75
2021/09/10 05:37:54;;;;;;;7.37;3.30;;;;;;;15.57;100.00;96593.47;5054479;28;20207;-75
2021/09/10 05:40:22;;;;;;;4.50;3.50;;;;;;;15.76;100.00;96591.31;5054650;28;20224;-75
2021/09/10 05:42:50;;;;;;;5.00;2.93;;;;;;;15.77;100.00;96606.22;5054186;28;20668;-75
2021/09/10 05:45:18;;;;;;;7.87;3.50;;;;;;;15.71;100.00;96594.53;5054712;28;20199;-75
2021/09/10 05:47:45;;;;;;;12.27;4.40;;;;;;;15.75;100.00;96602.94;5054384;28;20290;-75
2021/09/10 05:50:12;;;;;;;32.40;5.33;;;;;;;15.79;100.00;96605.03;5054890;28;20693;-75
2021/09/10 05:52:40;;;;;;;7.53;3.87;;;;;;;15.79;100.00;96597.06;5053964;28;20261;-75
2021/09/10 05:55:08;;;;;;;17.97;5.63;;;;;;;15.89;100.00;96602.91;5054206;28;20202;-75
2021/09/10 05:57:35;;;;;;;6.77;3.33;;;;;;;15.93;100.00;96601.56;5054027;28;20272;-75
2021/09/10 06:00:05;;;;;;;6.53;3.33;;;;;;;16.00;100.00;96603.47;5053825;28;20239;-75
2021/09/10 06:02:32;;;;;;;8.27;3.67;;;;;;;15.92;100.00;96615.81;5053947;28;20196;-75
2021/09/10 06:05:00;;;;;;;11.07;3.63;;;;;;;16.12;100.00;96604.66;5054059;28;20197;-75
2021/09/10 06:07:27;;;;;;;20.37;4.17;;;;;;;16.15;100.00;96609.59;5054168;28;20276;-75
2021/09/10 06:09:54;;;;;;;6.20;3.43;;;;;;;16.28;100.00;96611.56;5053793;28;20199;-75
2021/09/10 06:12:23;;;;;;;4.57;2.90;;;;;;;16.37;100.00;96610.47;5053975;28;20677;-75
2021/09/10 06:14:50;;;;;;;7.60;2.93;;;;;;;16.43;100.00;96611.56;5053824;28;20207;-75
2021/09/10 06:17:19;;;;;;;11.80;4.10;;;;;;;16.50;100.00;96612.44;5053691;28;20229;-75
2021/09/10 06:19:46;;;;;;;7.80;3.30;;;;;;;16.69;100.00;96618.97;5053701;28;20219;-75
2021/09/10 06:22:15;;;;;;;10.27;3.33;;;;;;;16.71;100.00;96622.25;5053407;28;20635;-75
2021/09/10 06:24:42;;;;;;;7.10;3.23;;;;;;;16.84;100.00;96627.75;5053694;28;20212;-75
2021/09/10 06:27:10;;;;;;;7.07;2.97;;;;;;;16.91;100.00;96627.81;5053390;28;20616;-75
2021/09/10 06:29:37;;;;;;;7.90;2.43;;;;;;;17.01;100.00;96634.44;5053588;28;20191;-75
2021/09/10 06:32:05;;;;;;;3.03;2.60;;;;;;;17.25;100.00;96640.34;5053291;28;20300;-75
2021/09/10 06:34:34;;;;;;;6.60;2.70;;;;;;;17.23;100.00;96643.22;5053845;28;20201;-75
2021/09/10 06:37:01;;;;;;;2.40;2.20;;;;;;;17.24;100.00;96650.16;5053371;28;20200;-75
2021/09/10 06:39:28;;;;;;;5.00;2.97;;;;;;;17.18;100.00;96655.41;5053106;28;20254;-75
2021/09/10 06:41:57;;;;;;;6.50;3.10;;;;;;;17.41;100.00;96647.25;5053479;28;20200;-75
2021/09/10 06:44:25;;;;;;;4.10;2.67;;;;;;;17.34;100.00;96647.19;5053298;28;20234;-75
2021/09/10 06:46:52;;;;;;;3.60;2.80;;;;;;;17.49;100.00;96663.91;5053120;28;20250;-75
2021/09/10 06:49:19;;;;;;;4.27;2.70;;;;;;;17.66;100.00;96648.47;5053197;28;20743;-75
2021/09/10 06:51:48;;;;;;;5.50;2.97;;;;;;;17.95;100.00;96667.94;5053312;28;20340;-75
2021/09/10 06:54:15;;;;;;;3.77;3.20;;;;;;;18.06;100.00;96670.03;5053160;28;20198;-74
2021/09/10 06:56:43;;;;;;;3.03;2.73;;;;;;;18.15;100.00;96674.19;5053002;28;20258;-75
2021/09/10 06:59:10;;;;;;;4.90;2.60;;;;;;;18.39;100.00;96669.38;5053229;28;20437;-75
2021/09/10 07:01:37;;;;;;;2.40;2.20;;;;;;;18.35;100.00;96678.78;5052973;28;20194;-76
2021/09/10 07:04:05;;;;;;;8.80;5.53;;;;;;;18.38;100.00;96678.38;5052931;28;20204;-75
2021/09/10 07:06:32;;;;;;;5.00;4.50;;;;;;;18.33;100.00;96688.81;5052799;28;20258;-77
2021/09/10 07:09:01;;;;;;;3.80;2.73;;;;;;;18.68;100.00;96684.25;5052771;28;20683;-76
2021/09/10 07:11:30;;;;;;;4.47;2.90;;;;;;;19.08;100.00;96685.19;5053079;28;20197;-75
2021/09/10 07:13:57;;;;;;;8.20;2.83;;;;;;;19.57;100.00;96694.72;5052711;28;20579;-77
2021/09/10 07:16:25;;;;;;;4.57;2.50;;;;;;;19.67;100.00;96718.31;5052720;28;20257;-76
2021/09/10 07:18:52;;;;;;;4.50;2.70;;;;;;;19.89;100.00;96724.28;5052552;28;20221;-77
2021/09/10 07:21:20;;;;;;;3.37;2.43;;;;;;;19.68;100.00;96726.13;5052370;28;20213;-77
2021/09/10 07:23:47;;;;;;;5.37;2.20;;;;;;;19.86;100.00;96720.16;5052738;28;20263;-76
2021/09/10 07:26:18;;;;;;;5.67;3.13;;;;;;;19.89;100.00;96729.63;5052896;28;20198;-76
2021/09/10 07:28:45;;;;;;;3.03;2.40;;;;;;;20.09;100.00;96733.09;5052389;28;20186;-76
2021/09/10 07:31:13;;;;;;;4.50;2.63;;;;;;;19.78;100.00;96746.22;5052201;28;20194;-76
2021/09/10 07:33:42;;;;;;;6.23;2.33;;;;;;;19.51;100.00;96740.84;5052722;28;20194;-76
2021/09/10 07:36:10;;;;;;;10.97;4.60;;;;;;;19.69;100.00;96729.59;5052648;28;20202;-76
2021/09/10 07:38:39;;;;;;;3.90;2.77;;;;;;;20.23;100.00;96749.06;5051849;28;20198;-76
2021/09/10 07:41:06;;;;;;;2.90;2.43;;;;;;;20.88;100.00;96766.78;5052349;28;20201;-76
2021/09/10 07:43:35;;;;;;;4.27;3.87;;;;;;;21.26;100.00;96760.66;5052104;28;20684;-76
2021/09/10 07:46:02;;;;;;;2.93;1.93;;;;;;;20.79;100.00;96777.94;5051665;28;20633;-76
2021/09/10 07:48:30;;;;;;;7.07;3.10;;;;;;;20.94;100.00;96778.50;5052315;28;20202;-76
2021/09/10 07:50:57;;;;;;;5.50;2.50;;;;;;;21.57;100.00;96775.13;5051877;28;20194;-77
2021/09/10 07:53:24;;;;;;;3.87;2.10;;;;;;;21.44;100.00;96789.41;5051916;28;20256;-76
2021/09/10 07:55:52;;;;;;;4.87;2.07;;;;;;;21.77;100.00;96788.38;5052032;28;20209;-77
2021/09/10 07:58:20;;;;;;;2.20;2.00;;;;;;;22.26;100.00;96808.19;5051845;28;20201;-76
2021/09/10 08:00:49;;;;;;;3.20;1.80;;;;;;;22.54;100.00;96815.75;5052186;28;20222;-76
2021/09/10 08:03:16;;;;;;;7.80;5.27;;;;;;;23.05;100.00;96805.78;5051920;28;20627;-76
2021/09/10 08:05:43;;;;;;;2.77;2.57;;;;;;;23.08;100.00;96814.19;5052212;28;20276;-76
2021/09/10 08:08:11;;;;;;;1.97;1.77;;;;;;;23.17;100.00;96822.75;5051805;28;20206;-76
2021/09/10 08:10:38;;;;;;;2.27;1.87;;;;;;;23.40;100.00;96819.38;5051859;28;20198;-77
2021/09/10 08:13:05;;;;;;;1.87;1.77;;;;;;;23.20;100.00;96811.56;5051650;28;20650;-77
2021/09/10 08:15:33;;;;;;;1.80;1.70;;;;;;;23.58;100.00;96823.88;5051876;28;20625;-76
2021/09/10 08:18:01;;;;;;;2.17;1.70;;;;;;;23.15;100.00;96816.81;5051903;28;20279;-76
2021/09/10 08:20:29;;;;;;;3.17;1.67;;;;;;;23.55;100.00;96806.38;5051702;28;20317;-76
2021/09/10 08:22:56;;;;;;;4.90;1.80;;;;;;;23.65;100.00;96803.13;5051411;28;20193;-76
2021/09/10 08:25:23;;;;;;;2.47;1.83;;;;;;;23.58;100.00;96811.28;5052022;28;20236;-77
2021/09/10 08:27:51;;;;;;;2.13;1.60;;;;;;;23.96;100.00;96805.59;5051187;28;20617;-77
2021/09/10 08:30:18;;;;;;;5.20;2.07;;;;;;;24.34;100.00;96804.34;5051986;28;20205;-77
2021/09/10 08:32:46;;;;;;;8.13;5.90;;;;;;;24.71;100.00;96817.59;5051716;28;20301;-77
2021/09/10 08:35:14;;;;;;;3.63;1.60;;;;;;;24.83;100.00;96813.00;5051703;28;20233;-77
2021/09/10 08:37:42;;;;;;;3.63;1.80;;;;;;;24.94;100.00;96805.16;5051730;28;20212;-77
2021/09/10 08:40:09;;;;;;;1.77;1.40;;;;;;;23.90;100.00;96797.63;5051502;28;20231;-77
2021/09/10 08:42:37;;;;;;;1.93;1.43;;;;;;;24.53;100.00;96798.91;5051193;28;20667;-77
2021/09/10 08:45:05;;;;;;;4.60;2.50;;;;;;;24.08;100.00;96799.44;5051840;28;20276;-77
2021/09/10 08:47:33;;;;;;;4.47;3.70;;;;;;;24.12;100.00;96803.28;5051327;28;20289;-77
2021/09/10 08:50:00;;;;;;;4.07;1.40;;;;;;;24.59;100.00;96800.66;5051542;28;20198;-76
2021/09/10 08:52:29;;;;;;;1.57;1.33;;;;;;;24.69;100.00;96800.88;5051592;28;20581;-77
2021/09/10 08:54:56;;;;;;;1.53;1.43;;;;;;;24.68;100.00;96805.44;5051277;28;20655;-76
2021/09/10 08:57:26;;;;;;;1.93;1.37;;;;;;;24.03;100.00;96800.13;5051351;28;20201;-76
2021/09/10 09:00:04;;;;;;;2.90;1.30;;;;;;;24.98;100.00;96795.59;5054354;28;20218;-77
2021/09/10 09:02:32;;;;;;;1.97;1.77;;;;;;;25.21;100.00;96790.16;5054929;28;20193;-77
2021/09/10 09:04:59;;;;;;;1.90;1.23;;;;;;;24.99;100.00;96789.16;5055228;28;20667;-77
2021/09/10 09:07:29;;;;;;;1.50;1.40;;;;;;;24.79;100.00;96789.53;5055031;28;20198;-77
2021/09/10 09:09:58;;;;;;;2.00;1.23;;;;;;;24.78;100.00;96780.66;5055101;28;20198;-77
2021/09/10 09:12:29;;;;;;;4.23;1.70;;;;;;;25.23;100.00;96777.31;5054743;28;20201;-77
2021/09/10 09:14:58;;;;;;;4.60;3.70;;;;;;;25.42;100.00;96780.63;5055081;28;20190;-77
2021/09/10 09:17:28;;;;;;;7.17;4.70;;;;;;;25.74;100.00;96783.66;5054817;28;20662;-77
2021/09/10 09:20:13;;;;;;;9.67;6.63;;;;;;;25.97;100.00;96781.88;5054659;28;20645;-78
2021/09/10 09:22:56;;;;;;;1.70;1.60;;;;;;;26.19;100.00;96782.00;5054747;28;20194;-77
2021/09/10 09:25:25;;;;;;;1.90;1.47;;;;;;;26.07;100.00;96782.88;5055063;28;20194;-77
2021/09/10 09:27:52;;;;;;;2.33;1.53;;;;;;;25.45;100.00;96782.81;5054740;28;20248;-77
2021/09/10 09:30:38;;;;;;;2.60;1.33;;;;;;;25.51;100.00;96778.38;5054750;28;20281;-77
2021/09/10 09:33:05;;;;;;;11.07;8.83;;;;;;;26.50;100.00;96777.91;5054613;28;20186;-77
2021/09/10 09:35:33;;;;;;;26.10;17.63;;;;;;;26.94;100.00;96775.25;5054661;28;20198;-77
2021/09/10 09:38:14;;;;;;;8.60;7.20;;;;;;;26.74;100.00;96773.09;5054452;28;20597;-77
2021/09/10 09:40:41;;;;;;;3.87;2.43;;;;;;;25.49;100.00;96769.72;5054294;28;20209;-77
2021/09/10 09:43:19;;;;;;;12.57;10.90;;;;;;;26.00;100.00;96766.06;5054345;28;20205;-77
2021/09/10 09:45:48;;;;;;;2.13;1.70;;;;;;;26.46;100.00;96764.06;5054505;28;20193;-77
2021/09/10 09:48:17;;;;;;;1.93;1.60;;;;;;;25.97;100.00;96765.72;5054269;28;20256;-77
2021/09/10 09:50:45;;;;;;;2.53;2.33;;;;;;;26.05;100.00;96768.84;5054171;28;20202;-77
2021/09/10 09:53:14;;;;;;;3.07;2.73;;;;;;;25.98;100.00;96762.81;5054244;28;20201;-77
2021/09/10 09:55:42;;;;;;;2.30;1.70;;;;;;;26.32;100.00;96770.88;5054590;28;20197;-77
2021/09/10 09:58:10;;;;;;;1.60;1.20;;;;;;;25.75;100.00;96771.00;5053878;28;20674;-77
2021/09/10 10:00:39;;;;;;;2.17;1.57;;;;;;;25.37;100.00;96767.06;5054163;28;20268;-77
2021/09/10 10:03:07;;;;;;;13.20;9.70;;;;;;;25.70;100.00;96757.44;5054115;28;20194;-77
2021/09/10 10:05:45;;;;;;;1.93;1.70;;;;;;;25.65;100.00;96757.34;5054372;28;20225;-77
2021/09/10 10:08:19;;;;;;;2.83;2.27;;;;;;;25.61;100.00;96757.84;5053823;28;20193;-77
2021/09/10 10:10:50;;;;;;;4.10;3.70;;;;;;;25.55;100.00;96758.78;5053519;28;20188;-77
2021/09/10 10:13:23;;;;;;;3.40;1.73;;;;;;;25.59;100.00;96764.50;5053926;28;20623;-77
2021/09/10 10:15:52;;;;;;;65.23;44.47;;;;;;;25.31;100.00;96768.84;5053998;28;20232;-77
2021/09/10 10:18:39;;;;;;;33.77;22.17;;;;;;;25.62;100.00;96755.97;5053880;28;20288;-78
2021/09/10 10:21:07;;;;;;;3.47;2.43;;;;;;;25.58;100.00;96757.50;5053549;28;20724;-77
2021/09/10 10:23:55;;;;;;;3.10;2.80;;;;;;;25.66;100.00;96749.03;5053615;28;20256;-78
2021/09/10 10:26:35;;;;;;;2.47;1.30;;;;;;;25.74;100.00;96764.00;5053816;28;20201;-77
2021/09/10 10:29:11;;;;;;;2.17;1.30;;;;;;;25.87;100.00;96754.78;5053951;28;20269;-77
2021/09/10 10:31:58;;;;;;;2.57;1.30;;;;;;;25.85;100.00;96755.06;5053372;28;20276;-78
2021/09/10 10:34:26;;;;;;;2.00;1.45;;;;;;;25.38;100.00;96758.75;5039800;28;20198;-77
2021/09/10 10:36:53;;;;;;;3.30;2.80;;;;;;;25.36;100.00;96750.13;5053306;28;20208;-77
2021/09/10 10:39:33;;;;;;;1.60;1.50;;;;;;;25.17;100.00;96758.63;5053436;28;20522;-77
2021/09/10 10:42:02;;;;;;;1.83;1.23;;;;;;;24.52;100.00;96755.09;5053345;28;20186;-77
2021/09/10 10:44:49;;;;;;;2.53;1.30;;;;;;;24.37;100.00;96757.41;5053734;28;20204;-77
2021/09/10 10:47:20;;;;;;;2.50;2.30;;;;;;;24.87;100.00;96741.63;5053288;28;20226;-77
2021/09/10 10:49:49;;;;;;;1.77;1.67;;;;;;;25.33;100.00;96745.22;5053262;28;20643;-78
2021/09/10 10:52:35;;;;;;;1.30;1.20;;;;;;;25.25;100.00;96748.31;5052990;28;20194;-77
2021/09/10 10:55:20;;;;;;;1.20;1.10;;;;;;;24.73;100.00;96742.09;5053530;28;20189;-77
2021/09/10 10:57:47;;;;;;;1.43;1.30;;;;;;;24.47;100.00;96740.75;5053051;28;20644;-77
2021/09/10 11:00:52;;;;;;;4.50;1.30;;;;;;;24.92;100.00;96736.31;5053013;28;20261;-77
2021/09/10 11:03:37;;;;;;;1.13;1.13;;;;;;;25.45;100.00;96736.28;5035215;28;20208;-77
2021/09/10 11:06:30;;;;;;;1.50;1.40;;;;;;;25.18;100.00;96736.03;5052897;28;20200;-77
2021/09/10 11:08:57;;;;;;;2.40;1.50;;;;;;;25.10;100.00;96731.81;5053028;28;20224;-77
2021/09/10 11:11:29;;;;;;;2.40;1.13;;;;;;;25.06;100.00;96738.75;5052891;28;20585;-77
2021/09/10 11:13:56;;;;;;;1.47;1.30;;;;;;;25.05;100.00;96734.44;5053219;28;20280;-77
2021/09/10 11:16:29;;;;;;;3.20;1.30;;;;;;;25.30;100.00;96723.38;5052974;28;20205;-77
2021/09/10 11:18:57;;;;;;;2.63;1.80;;;;;;;25.19;100.00;96722.34;5052386;28;20744;-77
2021/09/10 11:21:32;;;;;;;1.30;1.20;;;;;;;25.66;100.00;96722.09;5051700;28;20261;-77
2021/09/10 11:24:09;;;;;;;2.07;1.40;;;;;;;25.73;100.00;96717.38;5052521;28;20193;-77
2021/09/10 11:26:39;;;;;;;6.20;1.70;;;;;;;25.96;100.00;96707.56;5052367;28;20576;-77
2021/09/10 11:29:09;;;;;;;4.38;1.50;;;;;;;26.27;100.00;96715.03;5053128;28;20182;-77
2021/09/10 11:31:36;;;;;;;2.08;1.45;;;;;;;26.01;100.00;96715.69;5052765;28;20197;-77